Time;durP1;ratioP1;P1;durP2;ratioP2;P2;SDS_P1;SDS_P2;PMS_P1;PMS_P2;Temp;Humidity;BMP_temperature;BMP_pressure;BME280_temperature;BME280_humidity;BME280_pressure;Samples;Min_cycle;Max_cycle;Signal;HPM_P1;HPM_P2
2022/03/22 00:01:16;;;;;;;11.40;9.60;;;4.10;39.20;;;;;;6352893;27;20873;-62
2022/03/22 00:04:19;;;;;;;16.70;10.20;;;4.00;39.10;;;;;;6353502;27;20447;-63
2022/03/22 00:07:24;;;;;;;11.20;8.00;;;4.00;39.00;;;;;;6351350;27;20512;-62
2022/03/22 00:10:30;;;;;;;9.70;8.40;;;4.00;39.00;;;;;;6352588;27;20484;-62
2022/03/22 00:13:33;;;;;;;13.33;9.80;;;4.00;39.10;;;;;;6352921;27;21094;-63
2022/03/22 00:16:36;;;;;;;11.87;9.23;;;4.00;39.00;;;;;;6349856;27;20460;-62
2022/03/22 00:20:00;;;;;;;11.07;8.73;;;3.90;38.80;;;;;;6352349;27;20609;-62
2022/03/22 00:23:04;;;;;;;12.07;9.73;;;3.80;39.10;;;;;;6352334;28;20544;-62
2022/03/22 00:26:07;;;;;;;13.90;9.43;;;3.80;39.10;;;;;;6353080;27;20476;-62
2022/03/22 00:29:10;;;;;;;12.20;9.63;;;3.70;39.40;;;;;;6352125;27;20472;-62
2022/03/22 00:32:13;;;;;;;14.60;9.23;;;3.70;39.70;;;;;;6351716;27;20475;-61
2022/03/22 00:35:18;;;;;;;11.27;8.60;;;3.60;40.40;;;;;;6350590;27;20828;-61
2022/03/22 00:38:22;;;;;;;10.43;8.87;;;3.70;40.90;;;;;;6351326;27;21002;-61
2022/03/22 00:41:25;;;;;;;11.47;9.37;;;3.70;40.70;;;;;;6352248;28;20987;-62
2022/03/22 00:44:28;;;;;;;9.57;8.50;;;3.70;41.00;;;;;;6352258;28;20521;-62
2022/03/22 00:47:32;;;;;;;9.70;8.73;;;3.70;41.00;;;;;;6352108;28;20813;-61
2022/03/22 00:50:38;;;;;;;10.53;8.93;;;3.70;41.30;;;;;;6352008;28;20495;-62
2022/03/22 00:53:42;;;;;;;11.30;8.47;;;3.70;40.40;;;;;;6353017;28;20467;-62
2022/03/22 00:56:45;;;;;;;11.00;8.37;;;3.70;40.10;;;;;;6334974;27;20468;-62
2022/03/22 01:00:05;;;;;;;9.27;8.37;;;3.60;40.10;;;;;;6326347;27;20798;-61
2022/03/22 01:03:09;;;;;;;11.97;9.13;;;3.60;40.90;;;;;;6326204;27;20526;-62
2022/03/22 01:06:13;;;;;;;9.60;8.50;;;3.50;40.40;;;;;;6326385;27;20968;-62
2022/03/22 01:09:18;;;;;;;11.03;9.33;;;3.50;40.70;;;;;;6326291;27;20489;-61
2022/03/22 01:12:21;;;;;;;13.33;9.17;;;3.50;40.70;;;;;;6326964;27;20492;-61
2022/03/22 01:15:28;;;;;;;11.00;9.03;;;3.40;40.70;;;;;;6331745;27;20464;-61
2022/03/22 01:18:31;;;;;;;12.37;8.03;;;3.40;40.80;;;;;;6351773;27;20544;-63
2022/03/22 01:21:34;;;;;;;11.10;9.20;;;3.40;40.80;;;;;;6351891;27;20471;-63
2022/03/22 01:24:39;;;;;;;11.83;8.60;;;3.30;40.80;;;;;;6351631;28;20468;-61
2022/03/22 01:27:43;;;;;;;10.23;7.80;;;3.30;41.00;;;;;;6351139;28;20479;-61
2022/03/22 01:30:46;;;;;;;9.37;8.33;;;3.20;41.20;;;;;;6351188;28;20499;-61
2022/03/22 01:33:49;;;;;;;10.30;9.00;;;3.20;41.50;;;;;;6351027;28;20487;-63
2022/03/22 01:36:53;;;;;;;11.33;9.53;;;3.10;41.50;;;;;;6350717;28;20605;-64
2022/03/22 01:39:58;;;;;;;9.60;7.93;;;3.10;41.50;;;;;;6351086;28;20554;-64
2022/03/22 01:43:01;;;;;;;11.43;9.10;;;3.10;41.50;;;;;;6350887;27;20444;-63
2022/03/22 01:46:07;;;;;;;10.23;8.43;;;3.10;41.50;;;;;;6351258;27;20908;-63
2022/03/22 01:49:10;;;;;;;9.40;8.37;;;3.10;41.50;;;;;;6350468;27;20803;-61
2022/03/22 01:52:15;;;;;;;10.70;9.20;;;3.10;41.60;;;;;;6350500;27;20476;-63
2022/03/22 01:55:20;;;;;;;11.87;9.70;;;3.00;42.00;;;;;;6350149;27;20444;-63
2022/03/22 01:58:24;;;;;;;12.60;9.27;;;3.00;42.20;;;;;;6350706;27;20467;-61
2022/03/22 02:08:21;;;;;;;11.40;7.67;;;3.00;41.60;;;;;;6350360;27;20476;-63
2022/03/22 02:11:25;;;;;;;8.70;7.80;;;3.00;41.40;;;;;;6350227;27;20482;-62
2022/03/22 02:14:28;;;;;;;8.63;7.60;;;3.10;41.00;;;;;;6350284;27;20506;-64
2022/03/22 02:17:31;;;;;;;11.47;8.50;;;3.00;41.00;;;;;;6326585;28;20477;-63
2022/03/22 02:20:34;;;;;;;10.90;7.83;;;3.00;41.00;;;;;;6324459;28;20477;-63
2022/03/22 02:23:51;;;;;;;10.80;8.33;;;3.00;41.20;;;;;;6348178;28;20553;-63
2022/03/22 02:26:55;;;;;;;10.13;8.30;;;2.90;41.30;;;;;;6350254;27;20537;-63
2022/03/22 02:29:59;;;;;;;10.10;8.60;;;2.90;41.90;;;;;;6349582;28;20472;-63
2022/03/22 02:33:03;;;;;;;9.53;8.40;;;2.90;41.30;;;;;;6349746;28;20977;-61
2022/03/22 02:36:06;;;;;;;11.77;9.57;;;2.80;41.70;;;;;;6351970;28;21010;-62
2022/03/22 02:39:11;;;;;;;10.53;7.97;;;2.80;42.00;;;;;;6349115;28;20478;-63
2022/03/22 02:42:14;;;;;;;10.10;7.50;;;2.80;42.10;;;;;;6350126;27;20482;-63
2022/03/22 02:45:18;;;;;;;12.50;8.50;;;2.70;42.10;;;;;;6349553;27;20941;-61
2022/03/22 02:48:41;;;;;;;8.17;7.30;;;2.80;41.90;;;;;;6349506;27;20483;-63
2022/03/22 02:51:44;;;;;;;11.87;7.90;;;2.80;41.80;;;;;;6349203;27;20533;-62
2022/03/22 02:54:49;;;;;;;13.27;8.70;;;2.80;41.70;;;;;;6348906;27;20487;-61
2022/03/22 02:57:52;;;;;;;9.27;7.63;;;2.80;41.70;;;;;;6323790;27;20478;-62
2022/03/22 03:00:55;;;;;;;9.13;8.03;;;2.70;41.90;;;;;;6324078;27;20981;-62
2022/03/22 03:03:58;;;;;;;10.10;9.10;;;2.60;41.90;;;;;;6324187;27;20534;-61
2022/03/22 03:07:01;;;;;;;12.73;9.27;;;2.60;41.90;;;;;;6323889;27;20468;-63
2022/03/22 03:10:08;;;;;;;13.13;8.30;;;2.60;41.90;;;;;;6320650;27;20471;-62
2022/03/22 03:13:12;;;;;;;8.87;7.10;;;2.70;42.00;;;;;;6324117;27;20857;-63
2022/03/22 03:16:16;;;;;;;8.33;7.40;;;2.70;41.90;;;;;;6337366;27;20456;-63
2022/03/22 03:19:19;;;;;;;8.70;7.57;;;2.70;41.90;;;;;;6349722;28;20479;-63
2022/03/22 03:22:22;;;;;;;11.33;8.20;;;2.70;41.80;;;;;;6349250;28;20443;-62
2022/03/22 03:25:27;;;;;;;12.40;8.60;;;2.60;41.90;;;;;;6349434;28;20504;-62
2022/03/22 03:28:30;;;;;;;12.90;9.30;;;2.60;41.80;;;;;;6349559;28;20467;-64
2022/03/22 03:31:33;;;;;;;9.50;8.53;;;2.60;41.90;;;;;;6349341;28;20471;-63
2022/03/22 03:34:36;;;;;;;9.67;8.00;;;2.60;42.10;;;;;;6348921;28;20953;-63
2022/03/22 03:37:42;;;;;;;12.50;8.60;;;2.60;42.20;;;;;;6349152;28;20474;-62
2022/03/22 03:47:24;;;;;;;8.50;7.37;;;2.50;42.10;;;;;;6349005;27;20476;-62
2022/03/22 03:50:28;;;;;;;8.43;7.60;;;2.50;42.10;;;;;;6349989;27;20823;-62
2022/03/22 03:53:31;;;;;;;9.80;8.00;;;2.50;41.70;;;;;;6354631;27;20490;-61
2022/03/22 03:56:35;;;;;;;12.93;6.83;;;2.40;41.90;;;;;;6353822;27;20471;-61
2022/03/22 03:59:39;;;;;;;12.40;8.70;;;2.40;42.20;;;;;;6353290;27;20957;-61
2022/03/22 04:02:42;;;;;;;11.23;7.60;;;2.30;42.30;;;;;;6353804;27;20475;-62
2022/03/22 04:05:46;;;;;;;10.60;8.30;;;2.20;42.50;;;;;;6354034;27;20503;-62
2022/03/22 04:08:49;;;;;;;10.27;8.23;;;2.20;42.60;;;;;;6353752;27;20479;-62
2022/03/22 04:11:54;;;;;;;9.70;7.53;;;2.20;42.80;;;;;;6346574;27;20509;-63
2022/03/22 04:14:57;;;;;;;11.07;8.20;;;2.20;42.80;;;;;;6353783;27;21014;-63
2022/03/22 04:18:00;;;;;;;8.57;7.67;;;2.20;42.80;;;;;;6354096;27;20487;-63
2022/03/22 04:21:03;;;;;;;10.53;8.23;;;2.20;43.00;;;;;;6353501;27;20475;-62
2022/03/22 04:24:08;;;;;;;10.40;8.20;;;2.20;43.20;;;;;;6353883;28;20468;-63
2022/03/22 04:34:01;;;;;;;9.37;7.27;;;2.10;43.60;;;;;;6353248;28;20491;-63
2022/03/22 04:37:04;;;;;;;11.40;7.30;;;2.00;43.60;;;;;;6353137;28;20452;-62
2022/03/22 04:40:08;;;;;;;9.67;7.50;;;2.10;43.60;;;;;;6352460;27;20532;-62
2022/03/22 04:43:13;;;;;;;9.23;7.40;;;2.00;43.60;;;;;;6352889;27;20447;-61
2022/03/22 04:46:18;;;;;;;8.23;7.30;;;2.10;43.60;;;;;;6352104;27;20878;-62
2022/03/22 04:49:22;;;;;;;10.50;8.37;;;2.00;43.60;;;;;;6352799;27;20474;-61
2022/03/22 04:59:10;;;;;;;11.03;7.93;;;2.00;43.90;;;;;;6325682;27;20474;-62
2022/03/22 05:02:18;;;;;;;8.63;7.47;;;2.00;43.90;;;;;;6351710;27;20464;-63
2022/03/22 05:06:25;;;;;;;10.20;7.80;;;2.10;43.80;;;;;;6351818;27;20474;-64
2022/03/22 05:08:45;;;;;;;7.47;6.73;;;2.10;43.60;;;;;;6352222;27;20475;-64
2022/03/22 05:11:48;;;;;;;13.13;8.10;;;2.10;43.60;;;;;;6351826;27;20482;-63
2022/03/22 05:14:52;;;;;;;10.67;7.47;;;2.10;43.60;;;;;;6342384;27;20471;-62
2022/03/22 05:17:57;;;;;;;7.40;6.63;;;2.10;44.20;;;;;;6352043;27;20836;-62
2022/03/22 05:21:04;;;;;;;10.20;7.90;;;2.10;43.60;;;;;;6351863;27;20952;-61
2022/03/22 05:24:08;;;;;;;10.27;8.47;;;2.20;43.70;;;;;;6351442;28;20968;-63
2022/03/22 05:27:12;;;;;;;10.63;8.47;;;2.20;43.60;;;;;;6351430;28;20801;-63
2022/03/22 05:30:16;;;;;;;9.47;7.43;;;2.20;43.50;;;;;;6350927;28;20487;-61
2022/03/22 05:33:19;;;;;;;19.37;9.40;;;2.20;43.50;;;;;;6351267;28;20491;-62
2022/03/22 05:36:22;;;;;;;10.00;7.70;;;2.20;43.50;;;;;;6351005;28;20479;-63
2022/03/22 05:39:26;;;;;;;10.93;8.43;;;2.20;43.70;;;;;;6351259;27;20528;-64
2022/03/22 05:42:29;;;;;;;10.23;6.87;;;2.20;43.70;;;;;;6352268;27;20476;-62
2022/03/22 05:45:33;;;;;;;13.27;9.00;;;2.30;43.70;;;;;;6351016;27;20482;-63
2022/03/22 05:48:38;;;;;;;11.83;8.20;;;2.30;43.70;;;;;;6351195;27;20480;-62
2022/03/22 05:51:41;;;;;;;12.87;9.20;;;2.40;43.90;;;;;;6350594;27;20468;-62
2022/03/22 05:54:44;;;;;;;12.33;9.60;;;2.40;43.80;;;;;;6351071;27;20479;-62
2022/03/22 05:57:47;;;;;;;11.63;9.10;;;2.40;43.80;;;;;;6325079;28;20992;-62
2022/03/22 06:00:52;;;;;;;10.10;7.93;;;2.50;43.40;;;;;;6325535;28;20468;-62
2022/03/22 06:03:56;;;;;;;10.60;9.00;;;2.60;43.20;;;;;;6326287;28;20787;-62
2022/03/22 06:07:00;;;;;;;9.07;7.83;;;2.60;43.00;;;;;;6325778;28;20956;-62
2022/03/22 06:10:05;;;;;;;14.50;10.07;;;2.70;43.10;;;;;;6324850;28;20476;-62
2022/03/22 06:13:08;;;;;;;10.90;9.30;;;2.80;43.00;;;;;;6325038;28;20488;-62
2022/03/22 06:16:13;;;;;;;11.20;9.00;;;2.80;42.70;;;;;;6324804;28;20456;-62
2022/03/22 06:19:16;;;;;;;10.93;9.83;;;2.90;42.70;;;;;;6324713;28;20519;-63
2022/03/22 06:22:19;;;;;;;10.53;9.10;;;3.00;42.70;;;;;;6336844;28;20447;-62
2022/03/22 06:25:23;;;;;;;13.70;9.30;;;3.10;42.60;;;;;;6349895;28;20436;-63
2022/03/22 06:28:26;;;;;;;13.50;9.50;;;3.20;42.50;;;;;;6350053;28;20931;-62
2022/03/22 06:31:33;;;;;;;10.63;9.53;;;3.30;42.40;;;;;;6350343;28;20533;-63
2022/03/22 06:34:36;;;;;;;15.20;9.00;;;3.40;42.30;;;;;;6350339;28;20552;-62
2022/03/22 06:37:40;;;;;;;18.33;9.80;;;3.50;42.10;;;;;;6350760;28;20925;-63
2022/03/22 06:40:44;;;;;;;14.77;11.03;;;3.60;41.80;;;;;;6350657;27;20529;-62
2022/03/22 06:43:47;;;;;;;17.10;10.17;;;3.80;41.70;;;;;;6350273;27;20964;-64
2022/03/22 06:46:51;;;;;;;12.13;9.83;;;4.00;41.50;;;;;;6350015;27;20764;-63
2022/03/22 06:49:54;;;;;;;15.83;9.50;;;4.20;41.40;;;;;;6349935;27;20546;-63
2022/03/22 06:52:57;;;;;;;13.03;8.33;;;4.40;41.00;;;;;;6349627;27;20497;-62
2022/03/22 06:56:01;;;;;;;10.70;9.60;;;4.90;40.70;;;;;;6349924;27;20520;-63
2022/03/22 06:59:05;;;;;;;14.20;10.60;;;6.60;39.70;;;;;;6349475;27;20473;-63
2022/03/22 07:02:10;;;;;;;14.90;9.87;;;8.10;36.40;;;;;;6349945;27;20471;-63
2022/03/22 07:05:14;;;;;;;10.80;9.43;;;8.30;34.50;;;;;;6349667;27;20469;-64
2022/03/22 07:08:17;;;;;;;14.57;10.40;;;8.30;34.30;;;;;;6349399;27;21024;-63
2022/03/22 07:14:46;;;;;;;15.27;9.30;;;9.90;33.80;;;;;;6343790;27;20486;-65
2022/03/22 07:17:52;;;;;;;12.30;10.07;;;13.30;29.70;;;;;;6319519;28;20471;-65
2022/03/22 07:20:55;;;;;;;10.13;9.13;;;16.20;26.70;;;;;;6324986;28;20476;-66
2022/03/22 07:23:58;;;;;;;14.67;10.47;;;18.50;24.50;;;;;;6349933;28;20463;-66
2022/03/22 07:27:01;;;;;;;13.77;9.73;;;20.40;22.50;;;;;;6353937;28;20930;-65
2022/03/22 07:30:06;;;;;;;12.00;10.27;;;21.90;20.80;;;;;;6356295;28;20234;-65
2022/03/22 07:33:11;;;;;;;13.30;10.40;;;23.00;19.70;;;;;;6354374;28;20226;-65
2022/03/22 07:36:14;;;;;;;12.77;11.20;;;24.10;18.90;;;;;;6354120;28;20627;-64
2022/03/22 09:41:29;;;;;;;10.93;10.13;;;43.70;5.50;;;;;;6272633;27;20572;-64
2022/03/22 09:44:33;;;;;;;11.35;10.32;;;44.10;5.70;;;;;;6273429;28;20285;-64
2022/03/22 09:47:37;;;;;;;12.05;11.10;;;44.00;5.70;;;;;;6249865;28;20228;-67
2022/03/22 09:54:03;;;;;;;12.57;11.48;;;43.60;5.70;;;;;;6247851;28;20616;-65
2022/03/22 09:57:07;;;;;;;13.13;12.02;;;43.60;5.40;;;;;;6271183;28;20223;-66
2022/03/22 10:00:15;;;;;;;13.25;12.15;;;42.60;6.00;;;;;;6271063;28;20551;-64
2022/03/22 10:03:20;;;;;;;13.35;12.35;;;41.90;5.80;;;;;;6270937;28;20561;-66
2022/03/22 10:06:26;;;;;;;12.82;11.73;;;42.30;5.90;;;;;;6271510;28;20223;-66
2022/03/22 10:09:30;;;;;;;13.45;12.43;;;43.70;5.90;;;;;;6271259;28;20231;-64
2022/03/22 10:12:35;;;;;;;14.23;13.02;;;42.50;6.00;;;;;;6270879;28;20235;-65
2022/03/22 10:15:39;;;;;;;13.93;13.02;;;43.10;5.80;;;;;;6270897;28;20583;-65
2022/03/22 10:18:42;;;;;;;13.23;12.23;;;44.40;5.60;;;;;;6271307;28;20241;-65
2022/03/22 10:21:45;;;;;;;13.90;12.77;;;43.70;5.50;;;;;;6270510;28;20239;-65
2022/03/22 10:24:50;;;;;;;14.02;12.82;;;43.70;5.50;;;;;;6271133;28;20227;-64
2022/03/22 10:27:56;;;;;;;13.70;12.55;;;44.20;5.50;;;;;;6270921;28;20732;-65
2022/03/22 10:31:01;;;;;;;14.50;13.40;;;44.60;5.30;;;;;;6270392;28;20572;-65
2022/03/22 10:34:04;;;;;;;14.02;12.82;;;43.30;5.60;;;;;;6268100;28;20247;-65
2022/03/22 10:37:08;;;;;;;13.95;12.70;;;42.70;5.90;;;;;;6268625;28;20254;-64
2022/03/22 10:40:25;;;;;;;12.75;11.73;;;41.70;6.00;;;;;;6266117;28;20246;-66
2022/03/22 10:43:32;;;;;;;13.05;12.00;;;40.20;6.10;;;;;;6243811;28;20577;-63
2022/03/22 10:46:36;;;;;;;14.57;13.40;;;37.90;6.60;;;;;;6244457;28;20552;-67
2022/03/22 10:49:39;;;;;;;14.30;13.27;;;36.80;6.80;;;;;;6245168;28;20228;-65
2022/03/22 10:52:55;;;;;;;13.50;12.40;;;35.00;6.90;;;;;;6228068;28;20237;-66
2022/03/22 10:55:59;;;;;;;14.10;12.95;;;34.40;7.20;;;;;;6228882;28;20233;-65
2022/03/22 10:59:04;;;;;;;12.40;11.48;;;33.70;7.40;;;;;;6228874;28;20301;-66
2022/03/22 11:02:08;;;;;;;13.55;12.65;;;33.10;7.40;;;;;;6229773;28;20232;-66
2022/03/22 11:05:12;;;;;;;13.55;12.15;;;32.50;7.90;;;;;;6228839;28;20240;-63
2022/03/22 11:08:19;;;;;;;13.00;11.90;;;32.10;8.00;;;;;;6228913;28;20239;-64
2022/03/22 11:11:26;;;;;;;12.90;11.90;;;31.40;8.20;;;;;;6229397;28;20240;-63
2022/03/22 11:14:31;;;;;;;12.50;11.52;;;30.90;8.70;;;;;;6229170;28;20224;-66
2022/03/22 11:17:36;;;;;;;13.02;12.02;;;30.80;8.40;;;;;;6229040;28;20241;-63
2022/03/22 11:20:49;;;;;;;13.82;12.52;;;30.90;8.10;;;;;;6228073;28;20252;-66
2022/03/22 11:24:03;;;;;;;14.75;13.30;;;30.80;8.30;;;;;;6228412;28;20251;-64
2022/03/22 11:27:08;;;;;;;10.32;9.55;;;30.90;8.30;;;;;;6228180;28;20247;-64
2022/03/22 11:30:13;;;;;;;11.18;10.27;;;30.20;7.40;;;;;;6228851;28;20647;-65
2022/03/22 11:36:45;;;;;;;9.63;8.82;;;28.70;7.90;;;;;;6229290;28;20225;-64
2022/03/22 11:43:15;;;;;;;9.80;9.10;;;30.00;7.70;;;;;;6230772;28;20224;-63
2022/03/22 11:46:19;;;;;;;10.80;10.00;;;30.00;7.60;;;;;;6248462;28;20231;-64
2022/03/22 11:49:25;;;;;;;9.98;9.18;;;30.10;7.40;;;;;;6252294;28;20566;-63
2022/03/22 11:52:38;;;;;;;9.82;9.10;;;30.60;8.00;;;;;;6251860;28;20224;-65
2022/03/22 11:55:41;;;;;;;11.15;10.35;;;30.50;7.50;;;;;;6252318;28;20228;-65
2022/03/22 11:58:51;;;;;;;8.55;7.85;;;29.50;7.50;;;;;;6252596;28;20242;-63
2022/03/22 12:02:03;;;;;;;10.50;9.60;;;29.60;7.80;;;;;;6251039;28;20289;-64
2022/03/22 12:05:07;;;;;;;11.35;10.45;;;30.10;7.70;;;;;;6252169;28;20228;-64
2022/03/22 12:08:11;;;;;;;12.07;10.98;;;30.60;7.90;;;;;;6252608;28;20243;-64
2022/03/22 12:11:17;;;;;;;13.55;12.30;;;30.40;8.10;;;;;;6252197;28;20235;-63
2022/03/22 12:14:28;;;;;;;12.35;11.23;;;30.20;8.70;;;;;;6252119;28;20232;-64
2022/03/22 12:17:32;;;;;;;11.75;10.75;;;29.90;8.40;;;;;;6251489;28;20239;-64
2022/03/22 12:20:36;;;;;;;12.07;11.07;;;28.60;8.90;;;;;;6251502;28;20294;-64
2022/03/22 12:23:39;;;;;;;12.67;11.70;;;28.10;9.30;;;;;;6252334;28;20326;-65
2022/03/22 12:26:43;;;;;;;10.87;10.07;;;28.10;9.50;;;;;;6252791;28;20242;-65
2022/03/22 12:29:47;;;;;;;12.90;11.77;;;28.50;9.30;;;;;;6252050;28;20231;-63
2022/03/22 12:32:53;;;;;;;11.60;10.70;;;28.50;9.10;;;;;;6251543;28;20231;-63
2022/03/22 12:35:56;;;;;;;11.53;10.73;;;28.70;9.30;;;;;;6251513;28;20230;-63
2022/03/22 12:38:59;;;;;;;12.43;10.87;;;29.00;9.00;;;;;;6251155;28;20254;-63
2022/03/22 12:42:03;;;;;;;11.10;10.20;;;29.20;8.80;;;;;;6253961;28;20239;-64
2022/03/22 12:45:07;;;;;;;10.93;9.97;;;28.90;9.20;;;;;;6252090;28;20306;-66
2022/03/22 12:48:15;;;;;;;11.93;10.80;;;28.40;8.80;;;;;;6251468;28;20204;-64
2022/03/22 12:51:18;;;;;;;11.43;10.33;;;28.00;9.00;;;;;;6254067;28;20631;-65
2022/03/22 12:54:23;;;;;;;12.50;10.73;;;28.00;9.30;;;;;;6276520;28;20227;-66
2022/03/22 12:57:26;;;;;;;10.83;9.80;;;27.90;9.40;;;;;;6277870;28;20231;-65
2022/03/22 13:00:32;;;;;;;10.93;10.03;;;27.70;9.30;;;;;;6276316;28;20214;-64
2022/03/22 13:03:38;;;;;;;10.30;9.40;;;27.30;9.60;;;;;;6275350;28;20223;-63
2022/03/22 13:06:41;;;;;;;14.73;9.60;;;26.60;9.50;;;;;;6275620;28;20227;-63
2022/03/22 13:13:15;;;;;;;10.60;9.43;;;26.00;9.80;;;;;;6275068;28;20607;-62
2022/03/22 13:16:24;;;;;;;10.70;9.90;;;26.00;10.10;;;;;;6275523;28;20293;-64
2022/03/22 13:19:31;;;;;;;10.90;9.87;;;25.10;10.40;;;;;;6275015;28;20688;-63
2022/03/22 13:22:34;;;;;;;10.53;8.87;;;24.50;9.80;;;;;;6275053;28;20239;-64
2022/03/22 13:25:39;;;;;;;9.73;8.83;;;24.90;9.90;;;;;;6275098;28;20223;-64
2022/03/22 13:28:42;;;;;;;10.20;9.23;;;24.90;10.20;;;;;;6275507;28;20748;-64
2022/03/22 13:31:58;;;;;;;9.93;9.13;;;24.90;10.00;;;;;;6276174;28;20246;-66
2022/03/22 13:35:05;;;;;;;10.60;9.67;;;24.80;10.20;;;;;;6275007;28;20243;-66
2022/03/22 13:38:13;;;;;;;9.73;8.43;;;24.60;10.20;;;;;;6274152;28;20293;-66
2022/03/22 13:41:24;;;;;;;8.50;7.60;;;23.90;10.00;;;;;;6262014;28;20302;-64
2022/03/22 13:44:28;;;;;;;8.23;7.53;;;23.10;10.10;;;;;;6230091;28;20225;-65
2022/03/22 13:47:33;;;;;;;8.17;7.50;;;22.50;10.20;;;;;;6244119;28;20236;-64
2022/03/22 13:50:38;;;;;;;7.60;6.90;;;21.50;10.60;;;;;;6250803;28;20672;-64
2022/03/22 13:53:44;;;;;;;6.70;6.10;;;20.30;10.80;;;;;;6250102;28;20680;-65
2022/03/22 13:56:49;;;;;;;5.77;5.27;;;19.80;10.40;;;;;;6250194;28;20239;-64
2022/03/22 13:59:58;;;;;;;6.47;5.93;;;19.80;10.30;;;;;;6249805;28;20232;-64
2022/03/22 14:03:01;;;;;;;7.57;6.33;;;19.70;10.60;;;;;;6249663;28;20235;-64
2022/03/22 14:06:06;;;;;;;5.83;5.33;;;19.50;10.80;;;;;;6249641;28;20311;-64
2022/03/22 14:09:09;;;;;;;6.47;5.90;;;19.30;10.80;;;;;;6250085;28;20212;-64
2022/03/22 14:12:12;;;;;;;7.30;5.90;;;19.10;11.00;;;;;;6249899;28;20264;-61
2022/03/22 14:15:16;;;;;;;8.20;5.67;;;18.90;11.10;;;;;;6250319;28;20213;-62
2022/03/22 14:18:21;;;;;;;6.73;6.00;;;18.60;11.40;;;;;;6248998;28;20652;-63
2022/03/22 14:21:27;;;;;;;6.87;5.57;;;18.50;11.40;;;;;;6248695;28;20232;-63
2022/03/22 14:24:31;;;;;;;6.47;5.87;;;18.40;11.70;;;;;;6249019;28;20228;-64
2022/03/22 14:27:34;;;;;;;6.30;5.70;;;18.10;11.70;;;;;;6252098;28;20297;-63
2022/03/22 14:30:39;;;;;;;7.60;6.20;;;18.00;12.10;;;;;;6252769;28;20232;-64
2022/03/22 14:33:43;;;;;;;6.20;5.60;;;17.80;12.10;;;;;;6252314;28;20491;-62
2022/03/22 14:36:47;;;;;;;7.17;6.57;;;17.60;11.70;;;;;;6253703;28;20540;-64
2022/03/22 14:39:51;;;;;;;6.87;6.27;;;17.70;12.00;;;;;;6252939;28;20625;-63
2022/03/22 14:42:55;;;;;;;6.33;5.73;;;17.70;12.20;;;;;;6253941;28;20255;-64
2022/03/22 14:45:59;;;;;;;7.10;5.90;;;17.80;13.00;;;;;;6253471;28;20950;-63
2022/03/22 14:49:04;;;;;;;7.10;6.40;;;17.80;12.70;;;;;;6248058;28;20535;-62
2022/03/22 14:55:29;;;;;;;7.27;6.00;;;17.50;12.40;;;;;;6229146;28;20475;-62
2022/03/22 14:58:47;;;;;;;10.23;7.17;;;17.30;12.70;;;;;;6230035;28;20476;-64
2022/03/22 15:01:50;;;;;;;7.97;7.17;;;17.10;12.70;;;;;;6228801;28;20939;-61
2022/03/22 15:04:54;;;;;;;7.50;6.80;;;16.90;13.10;;;;;;6228362;28;20487;-61
2022/03/22 15:07:59;;;;;;;8.17;5.60;;;16.80;13.00;;;;;;6246838;28;20537;-63
2022/03/22 15:11:02;;;;;;;7.50;6.40;;;16.70;13.00;;;;;;6251172;28;20466;-65
2022/03/22 15:14:08;;;;;;;8.17;6.33;;;16.80;13.10;;;;;;6251232;28;20490;-64
2022/03/22 15:17:12;;;;;;;5.70;5.10;;;16.90;13.10;;;;;;6250528;28;20939;-62
2022/03/22 15:20:16;;;;;;;6.50;5.97;;;16.90;13.00;;;;;;6251367;28;20529;-64
2022/03/22 15:23:20;;;;;;;8.00;5.83;;;17.00;13.20;;;;;;6252789;28;20510;-63
2022/03/22 15:26:25;;;;;;;7.40;6.00;;;17.00;13.00;;;;;;6252565;28;21018;-64
2022/03/22 15:29:28;;;;;;;6.70;6.10;;;16.80;13.10;;;;;;6252417;28;20981;-62
2022/03/22 15:32:40;;;;;;;8.03;6.80;;;16.80;13.20;;;;;;6250977;28;20475;-62
2022/03/22 15:35:45;;;;;;;13.30;6.60;;;16.80;13.60;;;;;;6228865;28;20472;-62
2022/03/22 15:38:49;;;;;;;6.30;5.70;;;16.80;13.80;;;;;;6250378;28;20483;-61
2022/03/22 15:41:52;;;;;;;6.00;5.40;;;16.90;13.60;;;;;;6235105;28;20543;-61
2022/03/22 15:44:55;;;;;;;6.70;6.10;;;16.90;13.60;;;;;;6235126;28;20830;-61
2022/03/22 15:47:59;;;;;;;6.70;6.10;;;16.90;13.80;;;;;;6252516;28;20475;-61
2022/03/22 15:51:02;;;;;;;7.87;6.70;;;17.00;14.00;;;;;;6252147;28;20482;-61
2022/03/22 15:54:07;;;;;;;6.53;5.97;;;16.90;14.20;;;;;;6251772;28;20497;-62
2022/03/22 15:57:11;;;;;;;6.13;5.63;;;16.90;14.20;;;;;;6252164;28;20463;-62
2022/03/22 16:00:16;;;;;;;6.83;6.30;;;16.80;14.10;;;;;;6252372;28;20906;-63
2022/03/22 16:03:21;;;;;;;7.70;7.00;;;16.80;14.50;;;;;;6251839;28;20471;-63
2022/03/22 16:06:25;;;;;;;7.10;5.70;;;16.80;14.80;;;;;;6252321;28;20988;-63
2022/03/22 16:09:31;;;;;;;9.10;6.80;;;16.80;15.00;;;;;;6229444;28;20968;-63
2022/03/22 16:12:34;;;;;;;8.07;6.27;;;16.80;14.60;;;;;;6252300;28;20802;-64
2022/03/22 16:15:38;;;;;;;7.90;7.10;;;16.80;14.40;;;;;;6251942;28;20478;-65
2022/03/22 16:18:41;;;;;;;7.93;6.60;;;16.70;14.20;;;;;;6251989;28;20475;-63
2022/03/22 16:21:44;;;;;;;7.70;6.27;;;16.50;14.30;;;;;;6251068;28;20498;-64
2022/03/22 16:24:49;;;;;;;7.20;6.40;;;16.40;14.40;;;;;;6252234;28;20471;-63
2022/03/22 16:27:52;;;;;;;6.43;5.93;;;16.40;14.50;;;;;;6251396;28;20490;-63
2022/03/22 16:30:55;;;;;;;7.23;6.37;;;16.40;14.50;;;;;;6251445;28;20486;-62
2022/03/22 16:37:18;;;;;;;7.20;6.60;;;16.20;14.70;;;;;;6251547;28;20471;-63
2022/03/22 16:40:23;;;;;;;8.07;7.37;;;16.20;14.90;;;;;;6247330;28;20774;-64
2022/03/22 16:43:28;;;;;;;7.13;6.53;;;16.10;15.10;;;;;;6226715;28;20484;-63
2022/03/22 16:46:31;;;;;;;7.20;6.50;;;16.00;15.20;;;;;;6249028;28;20468;-63
2022/03/22 16:49:36;;;;;;;7.23;6.53;;;16.00;15.60;;;;;;6250241;28;20474;-63
2022/03/22 16:52:39;;;;;;;8.30;7.13;;;15.80;15.70;;;;;;6250869;28;20770;-63
2022/03/22 16:55:44;;;;;;;7.27;6.60;;;15.60;16.00;;;;;;6250864;28;20475;-63
2022/03/22 16:58:48;;;;;;;14.17;8.17;;;15.50;16.10;;;;;;6251340;28;20574;-63
2022/03/22 17:01:53;;;;;;;8.10;7.37;;;15.40;16.40;;;;;;6251493;28;20548;-63
2022/03/22 17:05:00;;;;;;;8.07;7.27;;;15.30;16.70;;;;;;6250487;28;20471;-63
2022/03/22 17:08:03;;;;;;;9.27;8.30;;;15.20;16.80;;;;;;6250467;28;20784;-64
2022/03/22 17:11:09;;;;;;;9.77;8.40;;;15.20;17.20;;;;;;6250731;28;20787;-62
2022/03/22 17:14:13;;;;;;;12.10;7.43;;;15.10;17.00;;;;;;6250524;28;20478;-64
2022/03/22 17:17:16;;;;;;;9.77;8.57;;;15.00;17.50;;;;;;6250261;28;20835;-64
2022/03/22 17:20:19;;;;;;;8.53;7.57;;;15.00;18.10;;;;;;6250325;28;20478;-64
2022/03/22 17:23:22;;;;;;;9.90;7.97;;;14.90;19.00;;;;;;6249678;28;20826;-64
2022/03/22 17:26:26;;;;;;;9.40;7.93;;;14.80;19.10;;;;;;6250609;28;20467;-63
2022/03/22 17:29:30;;;;;;;16.50;9.60;;;14.80;19.20;;;;;;6250809;28;20482;-64
2022/03/22 17:32:33;;;;;;;9.03;8.13;;;14.70;19.20;;;;;;6249597;28;20489;-63
2022/03/22 17:35:37;;;;;;;13.90;9.00;;;14.60;19.30;;;;;;6249451;28;20471;-64
2022/03/22 17:38:41;;;;;;;18.57;15.27;;;14.60;19.40;;;;;;6249383;28;20811;-64
2022/03/22 17:41:46;;;;;;;21.10;17.30;;;14.50;19.80;;;;;;6234434;28;20972;-63
2022/03/22 17:44:49;;;;;;;16.83;14.83;;;14.40;20.40;;;;;;6233995;28;20808;-63
2022/03/22 17:47:52;;;;;;;17.97;14.30;;;14.30;20.40;;;;;;6249515;28;20478;-64
2022/03/22 17:50:56;;;;;;;12.43;10.77;;;14.20;20.30;;;;;;6254311;28;20475;-61
2022/03/22 17:53:59;;;;;;;12.80;10.87;;;14.20;20.50;;;;;;6255908;28;20794;-65
2022/03/22 17:57:04;;;;;;;13.93;10.17;;;14.10;20.90;;;;;;6227358;28;20481;-61
2022/03/22 18:00:11;;;;;;;12.43;8.87;;;14.00;21.30;;;;;;6251982;28;20450;-62
2022/03/22 18:03:15;;;;;;;13.20;10.03;;;13.90;21.60;;;;;;6253449;28;20464;-62
2022/03/22 18:06:18;;;;;;;13.23;11.47;;;13.80;22.00;;;;;;6270999;28;20443;-62
2022/03/22 18:09:21;;;;;;;15.43;11.27;;;13.60;22.30;;;;;;6241503;28;20443;-62
2022/03/22 18:12:27;;;;;;;16.20;10.10;;;13.50;22.60;;;;;;6246660;28;20472;-62
2022/03/22 18:15:30;;;;;;;12.57;11.27;;;13.50;22.80;;;;;;6238678;28;20471;-63
2022/03/22 18:18:33;;;;;;;12.20;10.03;;;13.40;23.10;;;;;;6254738;28;20471;-63
2022/03/22 18:21:37;;;;;;;12.07;9.00;;;13.30;23.10;;;;;;6230222;28;20471;-63
2022/03/22 18:24:40;;;;;;;16.50;10.77;;;13.20;23.60;;;;;;6230356;28;20476;-63
2022/03/22 18:27:45;;;;;;;12.70;10.60;;;13.00;23.80;;;;;;6230170;28;20793;-64
2022/03/22 18:30:48;;;;;;;11.70;10.50;;;12.90;24.40;;;;;;6230265;28;20479;-65
2022/03/22 18:33:51;;;;;;;18.60;12.87;;;12.80;24.10;;;;;;6231273;28;20795;-65
2022/03/22 18:36:55;;;;;;;13.47;11.10;;;12.70;24.30;;;;;;6236037;28;20471;-62
2022/03/22 18:40:00;;;;;;;17.50;12.00;;;12.60;24.50;;;;;;6255293;28;20475;-63
2022/03/22 18:43:05;;;;;;;15.90;10.80;;;12.50;24.50;;;;;;6248157;28;20970;-63
2022/03/22 18:46:08;;;;;;;12.67;10.10;;;12.40;24.70;;;;;;6256472;28;20605;-63
2022/03/22 18:49:12;;;;;;;14.73;10.53;;;12.40;25.10;;;;;;6244242;28;20545;-62